createdAt,value
2022-12-18T00:02:06.297Z,-5.18
2022-12-18T00:04:32.827Z,-5.17
2022-12-18T00:06:59.266Z,-5.14
2022-12-18T00:09:25.892Z,-5.22
2022-12-18T00:14:43.130Z,-5.35
2022-12-18T00:17:10.071Z,-5.42
2022-12-18T00:19:36.489Z,-5.55
2022-12-18T00:22:02.918Z,-5.45
2022-12-18T00:24:29.339Z,-5.62
2022-12-18T00:26:55.803Z,-5.62
2022-12-18T00:29:27.093Z,-5.55
2022-12-18T00:31:53.624Z,-5.72
2022-12-18T00:34:20.200Z,-5.73
2022-12-18T00:36:48.433Z,-5.74
2022-12-18T00:39:14.910Z,-5.74
2022-12-18T00:42:00.228Z,-5.72
2022-12-18T00:44:27.705Z,-5.75
2022-12-18T00:46:54.243Z,-5.89
2022-12-18T00:49:21.150Z,-5.85
2022-12-18T00:51:48.176Z,-5.83
2022-12-18T00:54:15.218Z,-5.76
2022-12-18T00:56:49.808Z,-5.79
2022-12-18T00:59:18.124Z,-5.66
2022-12-18T01:01:45.682Z,-5.63
2022-12-18T01:04:12.608Z,-5.72
2022-12-18T01:06:39.092Z,-5.79
2022-12-18T01:09:06.738Z,-5.79
2022-12-18T01:11:33.210Z,-5.74
2022-12-18T01:14:01.167Z,-5.76
2022-12-18T01:16:27.810Z,-5.81
2022-12-18T01:18:55.538Z,-5.76
2022-12-18T01:21:22.772Z,-5.91
2022-12-18T01:23:52.949Z,-5.88
2022-12-18T01:26:19.740Z,-5.91
2022-12-18T01:28:46.175Z,-6.00
2022-12-18T01:31:20.121Z,-5.96
2022-12-18T01:33:46.603Z,-5.95
2022-12-18T01:36:24.512Z,-5.96
2022-12-18T01:38:51.737Z,-5.76
2022-12-18T01:41:23.683Z,-5.74
2022-12-18T01:43:53.238Z,-5.68
2022-12-18T01:46:21.938Z,-5.72
2022-12-18T01:48:50.583Z,-5.76
2022-12-18T01:51:17.249Z,-5.67
2022-12-18T01:53:44.784Z,-5.75
2022-12-18T01:56:15.224Z,-5.81
2022-12-18T01:59:01.674Z,-5.88
2022-12-18T02:01:28.401Z,-5.84
2022-12-18T02:03:55.032Z,-5.83
2022-12-18T02:06:28.597Z,-5.83
2022-12-18T02:09:11.425Z,-5.89
2022-12-18T02:11:43.815Z,-5.84
2022-12-18T02:14:26.160Z,-5.86
2022-12-18T02:16:54.756Z,-5.84
2022-12-18T02:20:04.001Z,-5.87
2022-12-18T02:22:49.060Z,-5.90
2022-12-18T02:25:30.867Z,-5.85
2022-12-18T02:28:00.810Z,-5.82
2022-12-18T02:30:28.424Z,-5.80
2022-12-18T02:32:55.456Z,-5.82
2022-12-18T02:35:25.083Z,-5.91
2022-12-18T02:37:54.908Z,-5.82
2022-12-18T02:40:23.336Z,-5.80
2022-12-18T02:42:49.977Z,-5.83
2022-12-18T02:45:16.729Z,-5.89
2022-12-18T02:47:45.089Z,-6.03
2022-12-18T02:50:34.338Z,-5.97
2022-12-18T02:53:19.023Z,-5.92
2022-12-18T02:56:08.527Z,-5.89
2022-12-18T02:58:58.447Z,-5.91
2022-12-18T03:02:00.230Z,-5.97
2022-12-18T03:04:31.599Z,-5.96
2022-12-18T03:07:02.879Z,-5.94
2022-12-18T03:09:34.298Z,-5.86
2022-12-18T03:12:24.811Z,-5.90
2022-12-18T03:15:03.396Z,-5.93
2022-12-18T03:17:32.557Z,-5.97
2022-12-18T03:20:02.041Z,-6.00
2022-12-18T03:22:31.325Z,-5.97
2022-12-18T03:24:58.431Z,-5.95
2022-12-18T03:27:25.620Z,-5.99
2022-12-18T03:30:08.441Z,-5.99
2022-12-18T03:32:41.592Z,-6.03
2022-12-18T03:35:09.089Z,-5.96
2022-12-18T03:37:35.951Z,-5.98
2022-12-18T03:40:02.931Z,-5.96
2022-12-18T03:42:46.715Z,-5.93
2022-12-18T03:45:24.516Z,-5.96
2022-12-18T03:48:07.487Z,-5.85
2022-12-18T03:50:43.085Z,-5.78
2022-12-18T03:53:15.163Z,-5.71
2022-12-18T03:55:42.028Z,-5.70
2022-12-18T03:58:09.161Z,-5.84
2022-12-18T04:00:35.872Z,-5.80
2022-12-18T04:03:03.053Z,-5.82
2022-12-18T04:05:29.904Z,-5.94
2022-12-18T04:07:57.450Z,-5.86
2022-12-18T04:10:23.946Z,-5.84
2022-12-18T04:12:50.346Z,-5.86
2022-12-18T04:15:16.772Z,-5.88
2022-12-18T04:17:50.677Z,-5.87
2022-12-18T04:20:17.852Z,-5.81
2022-12-18T04:22:44.257Z,-5.82
2022-12-18T04:25:10.691Z,-5.87
2022-12-18T04:27:37.139Z,-5.98
2022-12-18T04:30:04.380Z,-5.89
2022-12-18T04:32:30.812Z,-5.89
2022-12-18T04:34:57.481Z,-5.92
2022-12-18T04:37:23.907Z,-5.97
2022-12-18T04:39:50.320Z,-5.99
2022-12-18T04:42:16.762Z,-6.03
2022-12-18T04:44:43.349Z,-6.01
2022-12-18T04:47:09.817Z,-5.90
2022-12-18T04:49:36.245Z,-5.97
2022-12-18T04:52:02.650Z,-5.91
2022-12-18T04:54:29.077Z,-5.94
2022-12-18T04:56:55.640Z,-5.94
2022-12-18T04:59:22.044Z,-5.94
2022-12-18T05:01:48.723Z,-5.98
2022-12-18T05:04:15.305Z,-6.04
2022-12-18T05:06:41.873Z,-6.01
2022-12-18T05:09:08.306Z,-5.96
2022-12-18T05:11:34.737Z,-5.98
2022-12-18T05:14:01.159Z,-5.99
2022-12-18T05:16:27.731Z,-6.01
2022-12-18T05:18:54.477Z,-6.06
2022-12-18T05:21:20.899Z,-6.07
2022-12-18T05:23:47.440Z,-6.04
2022-12-18T05:26:18.519Z,-6.06
2022-12-18T05:28:45.524Z,-6.10
2022-12-18T05:31:12.228Z,-6.09
2022-12-18T05:33:39.302Z,-6.11
2022-12-18T05:36:08.187Z,-6.07
2022-12-18T05:38:36.994Z,-6.02
2022-12-18T05:41:04.161Z,-6.04
2022-12-18T05:43:30.988Z,-6.00
2022-12-18T05:45:58.440Z,-6.02
2022-12-18T05:48:24.999Z,-5.98
2022-12-18T05:50:51.847Z,-5.96
2022-12-18T05:53:20.275Z,-6.09
2022-12-18T05:55:47.268Z,-6.11
2022-12-18T05:58:14.627Z,-6.08
2022-12-18T06:00:45.074Z,-6.10
2022-12-18T06:03:12.812Z,-6.17
2022-12-18T06:05:41.729Z,-6.11
2022-12-18T06:08:08.322Z,-6.16
2022-12-18T06:10:34.875Z,-6.16
2022-12-18T06:13:01.788Z,-6.17
2022-12-18T06:15:28.226Z,-6.15
2022-12-18T06:17:54.656Z,-6.18
2022-12-18T06:20:21.213Z,-6.19
2022-12-18T06:22:47.582Z,-6.25
2022-12-18T06:25:14.009Z,-6.25
2022-12-18T06:27:40.576Z,-6.23
2022-12-18T06:30:09.613Z,-6.22
2022-12-18T06:32:35.998Z,-6.24
2022-12-18T06:35:02.402Z,-6.45
2022-12-18T06:37:29.182Z,-6.45
2022-12-18T06:39:55.633Z,-6.46
2022-12-18T06:42:23.519Z,-6.44
2022-12-18T06:44:50.119Z,-6.35
2022-12-18T06:47:16.535Z,-6.31
2022-12-18T06:49:42.989Z,-6.32
2022-12-18T06:52:09.569Z,-6.28
2022-12-18T06:54:35.965Z,-6.27
2022-12-18T06:57:02.342Z,-6.24
2022-12-18T06:59:28.970Z,-6.27
2022-12-18T07:01:55.780Z,-6.27
2022-12-18T07:04:22.326Z,-6.28
2022-12-18T07:06:48.783Z,-6.23
2022-12-18T07:09:15.171Z,-6.24
2022-12-18T07:11:41.533Z,-6.12
2022-12-18T07:14:07.949Z,-6.16
2022-12-18T07:16:34.332Z,-6.14
2022-12-18T07:19:00.853Z,-6.13
2022-12-18T07:21:27.312Z,-6.15
2022-12-18T07:23:53.799Z,-6.16
2022-12-18T07:26:21.336Z,-6.22
2022-12-18T07:28:47.842Z,-6.20
2022-12-18T07:31:21.647Z,-6.29
2022-12-18T07:33:48.973Z,-6.26
2022-12-18T07:36:15.779Z,-6.27
2022-12-18T07:38:42.293Z,-6.25
2022-12-18T07:41:10.772Z,-6.26
2022-12-18T07:43:38.279Z,-6.26
2022-12-18T07:46:05.629Z,-6.22
2022-12-18T07:48:32.348Z,-6.17
2022-12-18T07:51:02.732Z,-6.16
2022-12-18T07:53:29.460Z,-6.16
2022-12-18T07:56:25.920Z,-6.14
2022-12-18T07:58:48.442Z,-6.02
2022-12-18T08:01:15.668Z,-5.99
2022-12-18T08:03:42.525Z,-5.85
2022-12-18T08:06:10.507Z,-5.80
2022-12-18T08:08:37.450Z,-5.75
2022-12-18T08:11:04.130Z,-5.69
2022-12-18T08:13:30.557Z,-5.62
2022-12-18T08:15:58.935Z,-5.59
2022-12-18T08:18:27.291Z,-5.60
2022-12-18T08:20:54.071Z,-5.54
2022-12-18T08:23:20.501Z,-5.45
2022-12-18T08:25:47.244Z,-5.37
2022-12-18T08:28:13.951Z,-5.28
2022-12-18T08:30:40.386Z,-5.25
2022-12-18T08:33:07.311Z,-5.14
2022-12-18T08:35:41.085Z,-5.06
2022-12-18T08:38:10.527Z,-4.98
2022-12-18T08:40:37.004Z,-4.85
2022-12-18T08:43:22.160Z,-4.71
2022-12-18T08:45:48.659Z,-4.50
2022-12-18T08:48:20.597Z,-4.39
2022-12-18T08:50:58.913Z,-4.24
2022-12-18T08:53:25.372Z,-4.23
2022-12-18T08:55:51.826Z,-4.19
2022-12-18T08:58:18.262Z,-4.11
2022-12-18T09:00:44.913Z,-3.91
2022-12-18T09:03:15.824Z,-4.11
2022-12-18T09:05:42.376Z,-3.81
2022-12-18T09:08:08.984Z,-3.81
2022-12-18T09:10:43.567Z,-3.72
2022-12-18T09:13:11.308Z,-3.55
2022-12-18T09:15:54.410Z,-3.42
2022-12-18T09:18:22.265Z,-3.32
2022-12-18T09:20:48.892Z,-3.12
2022-12-18T09:23:15.486Z,-3.04
2022-12-18T09:25:42.028Z,-2.99
2022-12-18T09:28:16.192Z,-2.84
2022-12-18T09:30:47.767Z,-2.74
2022-12-18T09:33:14.645Z,-2.63
2022-12-18T09:35:41.984Z,-2.55
2022-12-18T09:38:09.941Z,-2.50
2022-12-18T09:40:42.473Z,-2.45
2022-12-18T09:43:16.115Z,-2.50
2022-12-18T09:45:46.084Z,-2.44
2022-12-18T09:48:23.109Z,-2.38
2022-12-18T09:50:50.269Z,-2.42
2022-12-18T09:53:21.422Z,-2.30
2022-12-18T09:55:48.646Z,-2.20
2022-12-18T09:58:27.915Z,-2.13
2022-12-18T10:00:54.728Z,-1.88
2022-12-18T10:03:21.658Z,-1.96
2022-12-18T10:06:11.970Z,-1.96
2022-12-18T10:08:46.025Z,-2.20
2022-12-18T10:11:29.160Z,-1.97
2022-12-18T10:14:07.729Z,-1.80
2022-12-18T10:16:43.688Z,-1.79
2022-12-18T10:19:19.322Z,-1.81
2022-12-18T10:22:11.756Z,-1.79
2022-12-18T10:24:49.918Z,-1.78
2022-12-18T10:27:18.624Z,-1.61
2022-12-18T10:29:45.847Z,-1.50
2022-12-18T10:32:18.459Z,-1.64
2022-12-18T10:34:51.286Z,-1.57
2022-12-18T10:37:26.209Z,-1.51
2022-12-18T10:40:22.327Z,-1.50
2022-12-18T10:43:05.367Z,-1.51
2022-12-18T10:45:31.959Z,-1.58
2022-12-18T10:47:59.004Z,-1.50
2022-12-18T10:50:54.008Z,-1.51
2022-12-18T10:53:25.448Z,-1.48
2022-12-18T10:55:53.566Z,-1.36
2022-12-18T10:58:33.254Z,-1.25
2022-12-18T11:01:04.288Z,-1.17
2022-12-18T11:03:33.640Z,-1.09
2022-12-18T11:06:10.064Z,-1.01
2022-12-18T11:08:37.566Z,-0.91
2022-12-18T11:11:05.530Z,-0.78
2022-12-18T11:13:32.962Z,-0.81
2022-12-18T11:16:00.228Z,-0.64
2022-12-18T11:18:29.745Z,-0.53
2022-12-18T11:21:12.743Z,-0.39
2022-12-18T11:23:48.018Z,-0.55
2022-12-18T11:26:14.588Z,-0.44
2022-12-18T11:28:50.850Z,-0.39
2022-12-18T11:31:28.919Z,-0.31
2022-12-18T11:36:48.522Z,-0.21
2022-12-18T11:39:40.713Z,-0.03
2022-12-18T11:42:35.667Z,0.29
2022-12-18T11:45:15.624Z,0.30
2022-12-18T11:47:50.757Z,0.47
2022-12-18T11:50:20.505Z,0.62
2022-12-18T11:52:49.350Z,0.64
2022-12-18T11:55:32.552Z,0.64
2022-12-18T11:58:31.293Z,0.64
2022-12-18T12:01:19.909Z,0.65
2022-12-18T12:04:13.385Z,0.71
2022-12-18T12:07:10.802Z,0.78
2022-12-18T12:10:01.013Z,0.75
2022-12-18T12:12:51.649Z,0.77
2022-12-18T12:15:27.048Z,0.72
2022-12-18T12:17:59.431Z,0.81
2022-12-18T12:20:38.107Z,0.86
2022-12-18T12:23:40.731Z,0.92
2022-12-18T12:26:28.047Z,0.49
2022-12-18T12:29:09.210Z,0.73
2022-12-18T12:31:58.596Z,0.76
2022-12-18T12:34:34.523Z,0.58
2022-12-18T12:37:23.932Z,0.47
2022-12-18T12:39:52.196Z,0.33
2022-12-18T12:42:57.029Z,0.43
2022-12-18T12:45:43.285Z,0.48
2022-12-18T12:48:28.753Z,0.41
2022-12-18T12:50:56.141Z,0.35
2022-12-18T12:53:27.934Z,0.30
2022-12-18T12:55:55.597Z,0.27
2022-12-18T12:58:32.669Z,-0.06
2022-12-18T13:01:28.118Z,0.12
2022-12-18T13:04:04.997Z,0.13
2022-12-18T13:06:49.137Z,0.14
2022-12-18T13:09:15.576Z,0.15
2022-12-18T13:12:04.424Z,0.23
2022-12-18T13:14:37.016Z,0.21
2022-12-18T13:17:17.797Z,0.23
2022-12-18T13:19:48.413Z,0.20
2022-12-18T13:22:29.387Z,0.26
2022-12-18T13:24:55.896Z,0.16
2022-12-18T13:27:44.624Z,0.17
2022-12-18T13:30:33.097Z,0.18
2022-12-18T13:33:21.093Z,0.05
2022-12-18T13:35:47.744Z,-0.05
2022-12-18T13:38:24.530Z,0.29
2022-12-18T13:40:51.186Z,0.11
2022-12-18T13:43:23.266Z,0.02
2022-12-18T13:46:06.445Z,0.05
2022-12-18T13:48:35.282Z,0.03
2022-12-18T13:51:04.353Z,-0.12
2022-12-18T13:53:34.485Z,0.07
2022-12-18T13:56:01.237Z,0.04
2022-12-18T13:58:27.721Z,-0.08
2022-12-18T14:00:54.221Z,-0.09
2022-12-18T14:03:24.165Z,-0.09
2022-12-18T14:06:00.242Z,-0.06
2022-12-18T14:08:31.936Z,0.01
2022-12-18T14:10:58.426Z,-0.02
2022-12-18T14:13:30.685Z,-0.12
2022-12-18T14:15:59.222Z,-0.06
2022-12-18T14:18:46.485Z,-0.01
2022-12-18T14:21:23.083Z,-0.28
2022-12-18T14:23:50.115Z,-0.42
2022-12-18T14:26:30.767Z,-0.21
2022-12-18T14:28:58.975Z,-0.30
2022-12-18T14:31:27.445Z,-0.47
2022-12-18T14:33:54.481Z,-0.30
2022-12-18T14:36:26.609Z,-0.32
2022-12-18T14:38:54.907Z,-0.36
2022-12-18T14:41:22.330Z,-0.32
2022-12-18T14:43:50.603Z,-0.39
2022-12-18T14:46:37.081Z,-0.14
2022-12-18T14:49:19.797Z,-0.44
2022-12-18T14:52:06.470Z,-0.52
2022-12-18T14:54:35.211Z,-0.51
2022-12-18T14:57:24.056Z,-0.49
2022-12-18T14:59:51.250Z,-0.48
2022-12-18T15:02:26.706Z,-0.54
2022-12-18T15:05:25.660Z,-0.54
2022-12-18T15:07:53.926Z,-0.50
2022-12-18T15:10:25.319Z,-0.45
2022-12-18T15:12:57.744Z,-0.42
2022-12-18T15:15:43.328Z,-0.51
2022-12-18T15:18:11.246Z,-0.55
2022-12-18T15:20:56.160Z,-0.59
2022-12-18T15:23:25.311Z,-0.56
2022-12-18T15:26:09.947Z,-0.63
2022-12-18T15:28:41.260Z,-0.57
2022-12-18T15:31:14.989Z,-0.56
2022-12-18T15:33:51.385Z,-0.53
2022-12-18T15:36:19.838Z,-0.48
2022-12-18T15:38:55.498Z,-0.48
2022-12-18T15:41:34.080Z,-0.43
2022-12-18T15:44:03.885Z,-0.38
2022-12-18T15:46:31.661Z,-0.47
2022-12-18T15:49:02.230Z,-0.49
2022-12-18T15:51:36.803Z,-0.50
2022-12-18T15:54:05.493Z,-0.35
2022-12-18T15:56:50.589Z,-0.30
2022-12-18T15:59:20.270Z,-0.38
2022-12-18T16:01:49.215Z,-0.37
2022-12-18T16:04:17.609Z,-0.44
2022-12-18T16:07:13.251Z,-0.36
2022-12-18T16:09:30.618Z,-0.22
2022-12-18T16:11:57.047Z,-0.21
2022-12-18T16:14:27.541Z,-0.14
2022-12-18T16:17:02.488Z,-0.17
2022-12-18T16:19:29.735Z,-0.22
2022-12-18T16:21:57.763Z,-0.29
2022-12-18T16:24:29.840Z,-0.18
2022-12-18T16:26:58.648Z,-0.28
2022-12-18T16:29:28.129Z,-0.23
2022-12-18T16:31:55.848Z,-0.17
2022-12-18T16:34:31.469Z,-0.22
2022-12-18T16:37:05.455Z,-0.26
2022-12-18T16:39:35.814Z,-0.19
2022-12-18T16:42:05.809Z,-0.17
2022-12-18T16:44:33.535Z,-0.34
2022-12-18T16:47:02.705Z,-0.28
2022-12-18T16:49:29.728Z,-0.26
2022-12-18T16:51:56.382Z,-0.16
2022-12-18T16:54:22.959Z,0.09
2022-12-18T16:56:51.547Z,0.10
2022-12-18T16:59:18.200Z,0.13
2022-12-18T17:01:44.856Z,0.02
2022-12-18T17:04:11.427Z,-0.02
2022-12-18T17:06:42.860Z,-0.10
2022-12-18T17:09:12.467Z,-0.09
2022-12-18T17:11:39.004Z,-0.09
2022-12-18T17:14:17.062Z,-0.08
2022-12-18T17:16:43.882Z,-0.16
2022-12-18T17:19:16.770Z,-0.09
2022-12-18T17:21:44.693Z,-0.14
2022-12-18T17:24:11.133Z,-0.05
2022-12-18T17:26:38.100Z,0.01
2022-12-18T17:29:04.660Z,-0.11
2022-12-18T17:31:32.061Z,-0.06
2022-12-18T17:33:58.776Z,-0.12
2022-12-18T17:36:28.881Z,-0.09
2022-12-18T17:38:57.467Z,-0.04
2022-12-18T17:41:24.795Z,0.10
2022-12-18T17:43:52.576Z,0.21
2022-12-18T17:46:19.198Z,0.38
2022-12-18T17:48:46.035Z,0.27
2022-12-18T17:51:12.481Z,0.30
2022-12-18T17:53:42.145Z,0.33
2022-12-18T17:56:12.591Z,0.07
2022-12-18T17:58:40.153Z,0.13
2022-12-18T18:01:07.384Z,0.06
2022-12-18T18:03:37.400Z,0.11
2022-12-18T18:06:04.826Z,-0.01
2022-12-18T18:08:31.981Z,0.21
2022-12-18T18:11:21.263Z,0.34
2022-12-18T18:14:02.953Z,0.97
2022-12-18T18:16:41.201Z,0.77
2022-12-18T18:19:14.186Z,0.48
2022-12-18T18:21:42.295Z,0.45
2022-12-18T18:24:10.568Z,0.38
2022-12-18T18:26:37.525Z,0.36
2022-12-18T18:29:06.780Z,0.38
2022-12-18T18:31:35.720Z,0.50
2022-12-18T18:34:13.100Z,0.45
2022-12-18T18:36:39.480Z,0.32
2022-12-18T18:39:05.922Z,0.36
2022-12-18T18:41:35.834Z,0.46
2022-12-18T18:44:02.501Z,0.51
2022-12-18T18:46:28.942Z,0.29
2022-12-18T18:48:55.630Z,0.20
2022-12-18T18:51:22.620Z,0.17
2022-12-18T18:53:51.631Z,0.35
2022-12-18T18:59:07.568Z,0.51
2022-12-18T19:01:34.097Z,0.57
2022-12-18T19:04:00.919Z,0.74
2022-12-18T19:06:28.455Z,0.52
2022-12-18T19:08:57.201Z,0.54
2022-12-18T19:11:44.141Z,0.54
2022-12-18T19:14:12.321Z,0.53
2022-12-18T19:16:38.952Z,0.61
2022-12-18T19:19:06.252Z,0.48
2022-12-18T19:21:34.303Z,0.49
2022-12-18T19:24:02.667Z,0.54
2022-12-18T19:26:29.871Z,0.67
2022-12-18T19:29:07.791Z,0.59
2022-12-18T19:31:36.765Z,0.54
2022-12-18T19:34:06.565Z,0.49
2022-12-18T19:36:34.595Z,0.59
2022-12-18T19:39:12.080Z,0.68
2022-12-18T19:41:38.589Z,0.77
2022-12-18T19:44:08.155Z,0.77
2022-12-18T19:46:35.194Z,0.68
2022-12-18T19:49:01.724Z,0.84
2022-12-18T19:51:29.781Z,0.71
2022-12-18T19:53:59.316Z,0.74
2022-12-18T19:56:29.521Z,0.71
2022-12-18T19:58:56.225Z,0.79
2022-12-18T20:01:24.564Z,0.85
2022-12-18T20:03:53.641Z,1.12
2022-12-18T20:06:34.382Z,1.09
2022-12-18T20:09:04.255Z,0.96
2022-12-18T20:11:32.280Z,1.02
2022-12-18T20:13:58.646Z,0.94
2022-12-18T20:16:25.109Z,0.84
2022-12-18T20:18:52.371Z,0.79
2022-12-18T20:21:19.321Z,0.62
2022-12-18T20:23:45.839Z,0.74
2022-12-18T20:26:12.348Z,0.80
2022-12-18T20:28:40.092Z,0.85
2022-12-18T20:31:08.430Z,0.85
2022-12-18T20:33:37.149Z,1.46
2022-12-18T20:36:06.525Z,2.16
2022-12-18T20:38:34.726Z,2.45
2022-12-18T20:41:02.465Z,2.99
2022-12-18T20:43:30.048Z,3.04
2022-12-18T20:46:03.486Z,3.62
2022-12-18T20:48:30.486Z,3.91
2022-12-18T20:51:02.120Z,4.05
2022-12-18T20:53:30.490Z,3.76
2022-12-18T20:55:56.933Z,3.43
2022-12-18T20:58:23.575Z,3.48
2022-12-18T21:00:50.143Z,3.11
2022-12-18T21:03:16.811Z,2.69
2022-12-18T21:05:43.438Z,2.72
2022-12-18T21:08:10.134Z,2.66
2022-12-18T21:10:39.191Z,2.54
2022-12-18T21:13:06.812Z,2.78
2022-12-18T21:15:35.897Z,2.41
2022-12-18T21:18:02.326Z,2.10
2022-12-18T21:20:28.915Z,1.91
2022-12-18T21:22:55.583Z,1.76
2022-12-18T21:25:25.709Z,1.71
2022-12-18T21:27:52.135Z,1.59
2022-12-18T21:30:18.714Z,1.62
2022-12-18T21:32:45.109Z,1.54
2022-12-18T21:35:11.649Z,1.41
2022-12-18T21:37:38.226Z,1.46
2022-12-18T21:40:06.009Z,1.44
2022-12-18T21:42:51.045Z,1.44
2022-12-18T21:45:17.469Z,1.46
2022-12-18T21:47:43.893Z,1.42
2022-12-18T21:50:10.281Z,1.37
2022-12-18T21:52:36.946Z,1.29
2022-12-18T21:55:09.079Z,1.32
2022-12-18T21:57:37.375Z,1.20
2022-12-18T22:00:05.067Z,1.28
2022-12-18T22:02:32.575Z,1.24
2022-12-18T22:04:59.213Z,1.37
2022-12-18T22:07:26.591Z,1.38
2022-12-18T22:09:53.005Z,1.42
2022-12-18T22:12:35.782Z,1.41
2022-12-18T22:15:10.742Z,1.38
2022-12-18T22:17:38.916Z,1.25
2022-12-18T22:20:05.716Z,1.31
2022-12-18T22:22:32.109Z,1.36
2022-12-18T22:24:59.519Z,1.39
2022-12-18T22:27:25.915Z,1.33
2022-12-18T22:30:04.459Z,1.44
2022-12-18T22:32:32.332Z,1.43
2022-12-18T22:35:05.269Z,1.36
2022-12-18T22:37:33.796Z,1.31
2022-12-18T22:40:03.262Z,1.37
2022-12-18T22:42:31.323Z,1.38
2022-12-18T22:44:57.737Z,1.47
2022-12-18T22:47:29.260Z,1.51
2022-12-18T22:49:56.349Z,1.51
2022-12-18T22:52:23.437Z,1.50
2022-12-18T22:54:51.391Z,1.44
2022-12-18T22:57:20.046Z,1.43
2022-12-18T22:59:46.430Z,1.50
2022-12-18T23:02:12.929Z,1.56
2022-12-18T23:04:39.757Z,1.51
2022-12-18T23:07:06.672Z,1.58
2022-12-18T23:09:33.665Z,1.54
2022-12-18T23:12:00.596Z,1.59
2022-12-18T23:14:28.199Z,1.55
2022-12-18T23:16:54.831Z,1.64
2022-12-18T23:19:22.698Z,1.73
2022-12-18T23:21:50.516Z,1.71
2022-12-18T23:24:16.934Z,1.69
2022-12-18T23:26:43.395Z,1.76
2022-12-18T23:29:09.956Z,1.73
2022-12-18T23:31:38.674Z,1.80
2022-12-18T23:34:05.831Z,1.73
2022-12-18T23:36:37.641Z,1.84
2022-12-18T23:39:29.124Z,1.84
2022-12-18T23:41:58.128Z,1.83
2022-12-18T23:44:24.745Z,1.87
2022-12-18T23:46:51.258Z,1.83
2022-12-18T23:49:17.688Z,2.00
2022-12-18T23:51:44.147Z,2.01
2022-12-18T23:54:10.607Z,2.06
2022-12-18T23:56:37.129Z,2.05
2022-12-18T23:59:03.686Z,2.09
